sensor_id;sensor_type;location;lat;lon;timestamp;P1;durP1;ratioP1;P2;durP2;ratioP2
22318;SDS011;11327;52.334;9.506;2022-12-17T00:00:26;47.67;;;29.10;;
22318;SDS011;11327;52.334;9.506;2022-12-17T00:04:06;48.33;;;28.67;;
22318;SDS011;11327;52.334;9.506;2022-12-17T00:07:45;44.85;;;27.62;;
22318;SDS011;11327;52.334;9.506;2022-12-17T00:11:25;46.65;;;27.70;;
22318;SDS011;11327;52.334;9.506;2022-12-17T00:15:04;45.43;;;28.00;;
22318;SDS011;11327;52.334;9.506;2022-12-17T00:18:44;44.40;;;26.93;;
22318;SDS011;11327;52.334;9.506;2022-12-17T00:22:23;48.10;;;28.02;;
22318;SDS011;11327;52.334;9.506;2022-12-17T00:26:03;42.50;;;27.13;;
22318;SDS011;11327;52.334;9.506;2022-12-17T00:29:43;44.80;;;27.07;;
22318;SDS011;11327;52.334;9.506;2022-12-17T00:33:22;47.03;;;28.38;;
22318;SDS011;11327;52.334;9.506;2022-12-17T00:37:02;46.08;;;28.60;;
22318;SDS011;11327;52.334;9.506;2022-12-17T00:40:42;53.60;;;29.00;;
22318;SDS011;11327;52.334;9.506;2022-12-17T00:44:21;54.98;;;29.82;;
22318;SDS011;11327;52.334;9.506;2022-12-17T00:48:01;62.33;;;32.40;;
22318;SDS011;11327;52.334;9.506;2022-12-17T00:51:40;60.92;;;32.25;;
22318;SDS011;11327;52.334;9.506;2022-12-17T00:55:19;63.55;;;32.15;;
22318;SDS011;11327;52.334;9.506;2022-12-17T00:58:59;62.30;;;33.05;;
22318;SDS011;11327;52.334;9.506;2022-12-17T01:02:38;62.23;;;32.17;;
22318;SDS011;11327;52.334;9.506;2022-12-17T01:06:18;62.70;;;31.27;;
22318;SDS011;11327;52.334;9.506;2022-12-17T01:09:57;62.73;;;32.38;;
22318;SDS011;11327;52.334;9.506;2022-12-17T01:13:36;56.70;;;29.82;;
22318;SDS011;11327;52.334;9.506;2022-12-17T01:17:15;62.80;;;32.85;;
22318;SDS011;11327;52.334;9.506;2022-12-17T01:20:55;63.10;;;30.60;;
22318;SDS011;11327;52.334;9.506;2022-12-17T01:24:35;60.28;;;31.05;;
22318;SDS011;11327;52.334;9.506;2022-12-17T01:28:19;58.25;;;29.52;;
22318;SDS011;11327;52.334;9.506;2022-12-17T01:31:59;53.15;;;29.35;;
22318;SDS011;11327;52.334;9.506;2022-12-17T01:35:38;56.92;;;30.17;;
22318;SDS011;11327;52.334;9.506;2022-12-17T01:39:18;52.95;;;28.67;;
22318;SDS011;11327;52.334;9.506;2022-12-17T01:42:57;53.00;;;29.27;;
22318;SDS011;11327;52.334;9.506;2022-12-17T01:46:38;52.30;;;27.90;;
22318;SDS011;11327;52.334;9.506;2022-12-17T01:50:19;50.17;;;28.42;;
22318;SDS011;11327;52.334;9.506;2022-12-17T01:54:00;47.20;;;28.25;;
22318;SDS011;11327;52.334;9.506;2022-12-17T01:57:40;47.93;;;27.10;;
22318;SDS011;11327;52.334;9.506;2022-12-17T02:01:20;49.45;;;26.97;;
22318;SDS011;11327;52.334;9.506;2022-12-17T02:04:59;45.33;;;26.97;;
22318;SDS011;11327;52.334;9.506;2022-12-17T02:12:39;46.20;;;26.50;;
22318;SDS011;11327;52.334;9.506;2022-12-17T02:16:21;47.13;;;27.25;;
22318;SDS011;11327;52.334;9.506;2022-12-17T02:20:18;48.95;;;27.55;;
22318;SDS011;11327;52.334;9.506;2022-12-17T02:27:42;49.90;;;26.90;;
22318;SDS011;11327;52.334;9.506;2022-12-17T02:31:22;46.80;;;27.22;;
22318;SDS011;11327;52.334;9.506;2022-12-17T02:35:05;49.58;;;26.30;;
22318;SDS011;11327;52.334;9.506;2022-12-17T02:38:52;50.38;;;26.80;;
22318;SDS011;11327;52.334;9.506;2022-12-17T02:42:32;46.60;;;25.75;;
22318;SDS011;11327;52.334;9.506;2022-12-17T02:46:11;48.63;;;27.17;;
22318;SDS011;11327;52.334;9.506;2022-12-17T02:49:51;42.03;;;24.92;;
22318;SDS011;11327;52.334;9.506;2022-12-17T02:53:34;44.08;;;25.97;;
22318;SDS011;11327;52.334;9.506;2022-12-17T02:57:17;44.90;;;26.12;;
22318;SDS011;11327;52.334;9.506;2022-12-17T03:00:58;47.85;;;26.85;;
22318;SDS011;11327;52.334;9.506;2022-12-17T03:04:37;45.85;;;26.70;;
22318;SDS011;11327;52.334;9.506;2022-12-17T03:08:17;49.30;;;27.52;;
22318;SDS011;11327;52.334;9.506;2022-12-17T03:11:56;47.45;;;26.73;;
22318;SDS011;11327;52.334;9.506;2022-12-17T03:15:36;48.40;;;26.10;;
22318;SDS011;11327;52.334;9.506;2022-12-17T03:19:16;43.58;;;24.77;;
22318;SDS011;11327;52.334;9.506;2022-12-17T03:23:02;45.35;;;25.30;;
22318;SDS011;11327;52.334;9.506;2022-12-17T03:26:43;46.70;;;25.75;;
22318;SDS011;11327;52.334;9.506;2022-12-17T03:30:22;48.78;;;26.35;;
22318;SDS011;11327;52.334;9.506;2022-12-17T03:34:01;46.88;;;26.12;;
22318;SDS011;11327;52.334;9.506;2022-12-17T03:37:41;42.08;;;25.45;;
22318;SDS011;11327;52.334;9.506;2022-12-17T03:41:20;43.60;;;24.75;;
22318;SDS011;11327;52.334;9.506;2022-12-17T03:45:00;44.18;;;25.77;;
22318;SDS011;11327;52.334;9.506;2022-12-17T03:48:40;45.92;;;25.43;;
22318;SDS011;11327;52.334;9.506;2022-12-17T03:52:19;46.02;;;24.25;;
22318;SDS011;11327;52.334;9.506;2022-12-17T03:55:59;43.15;;;25.17;;
22318;SDS011;11327;52.334;9.506;2022-12-17T03:59:30;41.58;;;24.18;;
22318;SDS011;11327;52.334;9.506;2022-12-17T04:03:10;43.30;;;24.75;;
22318;SDS011;11327;52.334;9.506;2022-12-17T04:06:49;41.20;;;23.95;;
22318;SDS011;11327;52.334;9.506;2022-12-17T04:10:29;45.28;;;24.70;;
22318;SDS011;11327;52.334;9.506;2022-12-17T04:14:08;43.63;;;24.92;;
22318;SDS011;11327;52.334;9.506;2022-12-17T04:17:47;43.42;;;24.45;;
22318;SDS011;11327;52.334;9.506;2022-12-17T04:21:13;42.65;;;24.63;;
22318;SDS011;11327;52.334;9.506;2022-12-17T04:24:52;43.23;;;24.67;;
22318;SDS011;11327;52.334;9.506;2022-12-17T04:28:32;47.03;;;24.55;;
22318;SDS011;11327;52.334;9.506;2022-12-17T04:32:11;42.88;;;24.67;;
22318;SDS011;11327;52.334;9.506;2022-12-17T04:35:51;38.85;;;23.40;;
22318;SDS011;11327;52.334;9.506;2022-12-17T04:39:30;38.50;;;21.77;;
22318;SDS011;11327;52.334;9.506;2022-12-17T04:43:11;41.37;;;22.98;;
22318;SDS011;11327;52.334;9.506;2022-12-17T04:46:50;38.98;;;22.87;;
22318;SDS011;11327;52.334;9.506;2022-12-17T04:50:30;41.33;;;24.00;;
22318;SDS011;11327;52.334;9.506;2022-12-17T04:54:09;40.05;;;22.25;;
22318;SDS011;11327;52.334;9.506;2022-12-17T04:57:49;39.08;;;22.98;;
22318;SDS011;11327;52.334;9.506;2022-12-17T05:01:28;39.42;;;22.37;;
22318;SDS011;11327;52.334;9.506;2022-12-17T05:05:08;47.25;;;24.07;;
22318;SDS011;11327;52.334;9.506;2022-12-17T05:08:47;44.90;;;24.60;;
22318;SDS011;11327;52.334;9.506;2022-12-17T05:12:27;37.90;;;23.35;;
22318;SDS011;11327;52.334;9.506;2022-12-17T05:16:06;37.98;;;21.77;;
22318;SDS011;11327;52.334;9.506;2022-12-17T05:19:46;37.13;;;22.45;;
22318;SDS011;11327;52.334;9.506;2022-12-17T05:23:26;37.90;;;22.55;;
22318;SDS011;11327;52.334;9.506;2022-12-17T05:27:05;41.28;;;23.30;;
22318;SDS011;11327;52.334;9.506;2022-12-17T05:30:52;38.48;;;23.15;;
22318;SDS011;11327;52.334;9.506;2022-12-17T05:34:32;38.88;;;22.48;;
22318;SDS011;11327;52.334;9.506;2022-12-17T05:38:11;39.90;;;22.60;;
22318;SDS011;11327;52.334;9.506;2022-12-17T05:41:51;39.75;;;21.35;;
22318;SDS011;11327;52.334;9.506;2022-12-17T05:45:30;38.15;;;21.82;;
22318;SDS011;11327;52.334;9.506;2022-12-17T05:49:10;41.98;;;23.02;;
22318;SDS011;11327;52.334;9.506;2022-12-17T05:52:49;38.75;;;22.02;;
22318;SDS011;11327;52.334;9.506;2022-12-17T05:56:28;40.48;;;22.22;;
22318;SDS011;11327;52.334;9.506;2022-12-17T06:00:08;39.85;;;21.75;;
22318;SDS011;11327;52.334;9.506;2022-12-17T06:03:48;41.23;;;22.13;;
22318;SDS011;11327;52.334;9.506;2022-12-17T06:07:28;37.73;;;21.30;;
22318;SDS011;11327;52.334;9.506;2022-12-17T06:11:08;41.92;;;21.93;;
22318;SDS011;11327;52.334;9.506;2022-12-17T06:14:47;42.23;;;23.57;;
22318;SDS011;11327;52.334;9.506;2022-12-17T06:18:27;43.28;;;25.08;;
22318;SDS011;11327;52.334;9.506;2022-12-17T06:22:06;39.67;;;23.40;;
22318;SDS011;11327;52.334;9.506;2022-12-17T06:25:45;40.48;;;21.77;;
22318;SDS011;11327;52.334;9.506;2022-12-17T06:29:25;40.45;;;22.05;;
22318;SDS011;11327;52.334;9.506;2022-12-17T06:33:05;38.30;;;21.68;;
22318;SDS011;11327;52.334;9.506;2022-12-17T06:36:45;38.20;;;21.40;;
22318;SDS011;11327;52.334;9.506;2022-12-17T06:40:25;39.40;;;21.57;;
22318;SDS011;11327;52.334;9.506;2022-12-17T06:44:05;41.35;;;21.90;;
22318;SDS011;11327;52.334;9.506;2022-12-17T06:47:44;38.10;;;21.55;;
22318;SDS011;11327;52.334;9.506;2022-12-17T06:51:24;37.15;;;20.70;;
22318;SDS011;11327;52.334;9.506;2022-12-17T06:55:03;35.85;;;20.32;;
22318;SDS011;11327;52.334;9.506;2022-12-17T06:58:43;31.55;;;18.50;;
22318;SDS011;11327;52.334;9.506;2022-12-17T07:02:24;34.08;;;18.12;;
22318;SDS011;11327;52.334;9.506;2022-12-17T07:06:03;30.92;;;17.48;;
22318;SDS011;11327;52.334;9.506;2022-12-17T07:09:43;29.37;;;16.75;;
22318;SDS011;11327;52.334;9.506;2022-12-17T07:13:22;33.23;;;17.15;;
22318;SDS011;11327;52.334;9.506;2022-12-17T07:17:02;31.30;;;17.40;;
22318;SDS011;11327;52.334;9.506;2022-12-17T07:20:41;29.50;;;16.67;;
22318;SDS011;11327;52.334;9.506;2022-12-17T07:24:21;29.32;;;16.57;;
22318;SDS011;11327;52.334;9.506;2022-12-17T07:28:00;32.35;;;17.23;;
22318;SDS011;11327;52.334;9.506;2022-12-17T07:31:40;31.50;;;16.67;;
22318;SDS011;11327;52.334;9.506;2022-12-17T07:35:19;26.17;;;15.35;;
22318;SDS011;11327;52.334;9.506;2022-12-17T07:38:59;26.57;;;14.85;;
22318;SDS011;11327;52.334;9.506;2022-12-17T07:42:38;26.82;;;15.65;;
22318;SDS011;11327;52.334;9.506;2022-12-17T07:46:18;25.62;;;14.63;;
22318;SDS011;11327;52.334;9.506;2022-12-17T07:49:57;25.92;;;15.35;;
22318;SDS011;11327;52.334;9.506;2022-12-17T07:53:36;26.77;;;14.95;;
22318;SDS011;11327;52.334;9.506;2022-12-17T07:57:16;27.93;;;15.55;;
22318;SDS011;11327;52.334;9.506;2022-12-17T08:00:58;24.98;;;14.55;;
22318;SDS011;11327;52.334;9.506;2022-12-17T08:04:39;23.92;;;13.93;;
22318;SDS011;11327;52.334;9.506;2022-12-17T08:08:19;25.77;;;14.50;;
22318;SDS011;11327;52.334;9.506;2022-12-17T08:11:58;25.23;;;14.47;;
22318;SDS011;11327;52.334;9.506;2022-12-17T08:15:38;26.42;;;14.70;;
22318;SDS011;11327;52.334;9.506;2022-12-17T08:19:17;25.40;;;14.15;;
22318;SDS011;11327;52.334;9.506;2022-12-17T08:23:03;26.57;;;14.85;;
22318;SDS011;11327;52.334;9.506;2022-12-17T08:26:43;25.35;;;13.53;;
22318;SDS011;11327;52.334;9.506;2022-12-17T08:30:23;24.92;;;13.88;;
22318;SDS011;11327;52.334;9.506;2022-12-17T08:34:02;25.92;;;14.80;;
22318;SDS011;11327;52.334;9.506;2022-12-17T08:37:42;21.68;;;13.62;;
22318;SDS011;11327;52.334;9.506;2022-12-17T08:41:22;26.68;;;15.58;;
22318;SDS011;11327;52.334;9.506;2022-12-17T08:45:01;30.45;;;16.75;;
22318;SDS011;11327;52.334;9.506;2022-12-17T08:48:41;42.75;;;21.42;;
22318;SDS011;11327;52.334;9.506;2022-12-17T08:52:20;46.13;;;22.58;;
22318;SDS011;11327;52.334;9.506;2022-12-17T08:55:59;45.12;;;21.73;;
22318;SDS011;11327;52.334;9.506;2022-12-17T08:59:39;45.43;;;26.25;;
22318;SDS011;11327;52.334;9.506;2022-12-17T09:03:18;48.73;;;27.82;;
22318;SDS011;11327;52.334;9.506;2022-12-17T09:06:57;46.88;;;27.40;;
22318;SDS011;11327;52.334;9.506;2022-12-17T09:10:37;42.65;;;26.05;;
22318;SDS011;11327;52.334;9.506;2022-12-17T09:14:16;48.28;;;27.02;;
22318;SDS011;11327;52.334;9.506;2022-12-17T09:17:55;46.13;;;26.70;;
22318;SDS011;11327;52.334;9.506;2022-12-17T09:21:35;45.67;;;28.42;;
22318;SDS011;11327;52.334;9.506;2022-12-17T09:25:14;50.78;;;28.90;;
22318;SDS011;11327;52.334;9.506;2022-12-17T09:28:54;49.45;;;28.77;;
22318;SDS011;11327;52.334;9.506;2022-12-17T09:32:33;57.85;;;30.95;;
22318;SDS011;11327;52.334;9.506;2022-12-17T09:36:15;52.25;;;29.07;;
22318;SDS011;11327;52.334;9.506;2022-12-17T09:39:55;47.08;;;26.15;;
22318;SDS011;11327;52.334;9.506;2022-12-17T09:51:21;45.63;;;27.70;;
22318;SDS011;11327;52.334;9.506;2022-12-17T09:55:02;45.38;;;26.42;;
22318;SDS011;11327;52.334;9.506;2022-12-17T09:58:45;44.15;;;25.37;;
22318;SDS011;11327;52.334;9.506;2022-12-17T10:02:26;41.88;;;24.37;;
22318;SDS011;11327;52.334;9.506;2022-12-17T10:06:09;42.20;;;25.30;;
22318;SDS011;11327;52.334;9.506;2022-12-17T10:09:50;40.48;;;24.40;;
22318;SDS011;11327;52.334;9.506;2022-12-17T10:13:30;43.98;;;23.80;;
22318;SDS011;11327;52.334;9.506;2022-12-17T10:17:17;38.35;;;23.05;;
22318;SDS011;11327;52.334;9.506;2022-12-17T10:21:01;36.50;;;22.90;;
22318;SDS011;11327;52.334;9.506;2022-12-17T10:24:43;38.60;;;22.98;;
22318;SDS011;11327;52.334;9.506;2022-12-17T10:28:23;34.40;;;22.48;;
22318;SDS011;11327;52.334;9.506;2022-12-17T10:32:10;34.95;;;21.60;;
22318;SDS011;11327;52.334;9.506;2022-12-17T10:35:55;33.15;;;21.35;;
22318;SDS011;11327;52.334;9.506;2022-12-17T10:39:35;35.20;;;20.75;;
22318;SDS011;11327;52.334;9.506;2022-12-17T10:43:25;30.05;;;19.45;;
22318;SDS011;11327;52.334;9.506;2022-12-17T10:47:17;28.77;;;18.85;;
22318;SDS011;11327;52.334;9.506;2022-12-17T10:50:57;27.87;;;18.65;;
22318;SDS011;11327;52.334;9.506;2022-12-17T10:54:36;28.47;;;18.30;;
22318;SDS011;11327;52.334;9.506;2022-12-17T10:58:20;30.17;;;18.75;;
22318;SDS011;11327;52.334;9.506;2022-12-17T11:02:08;27.27;;;18.48;;
22318;SDS011;11327;52.334;9.506;2022-12-17T11:05:51;25.70;;;17.77;;
22318;SDS011;11327;52.334;9.506;2022-12-17T11:09:43;26.60;;;17.62;;
22318;SDS011;11327;52.334;9.506;2022-12-17T11:17:15;25.12;;;16.32;;
22318;SDS011;11327;52.334;9.506;2022-12-17T11:20:57;30.23;;;19.25;;
22318;SDS011;11327;52.334;9.506;2022-12-17T11:28:55;29.00;;;18.50;;
22318;SDS011;11327;52.334;9.506;2022-12-17T11:36:33;25.72;;;17.50;;
22318;SDS011;11327;52.334;9.506;2022-12-17T11:47:51;24.77;;;16.65;;
22318;SDS011;11327;52.334;9.506;2022-12-17T11:55:43;25.65;;;17.48;;
22318;SDS011;11327;52.334;9.506;2022-12-17T11:59:33;26.95;;;17.48;;
22318;SDS011;11327;52.334;9.506;2022-12-17T12:03:24;25.68;;;16.62;;
22318;SDS011;11327;52.334;9.506;2022-12-17T12:07:16;20.48;;;15.50;;
22318;SDS011;11327;52.334;9.506;2022-12-17T12:11:03;21.17;;;15.15;;
22318;SDS011;11327;52.334;9.506;2022-12-17T12:22:54;21.80;;;15.50;;
22318;SDS011;11327;52.334;9.506;2022-12-17T12:26:39;23.35;;;15.95;;
22318;SDS011;11327;52.334;9.506;2022-12-17T12:30:22;18.52;;;13.95;;
22318;SDS011;11327;52.334;9.506;2022-12-17T12:34:02;19.45;;;12.68;;
22318;SDS011;11327;52.334;9.506;2022-12-17T12:37:44;16.48;;;11.18;;
22318;SDS011;11327;52.334;9.506;2022-12-17T12:49:24;14.63;;;9.25;;
22318;SDS011;11327;52.334;9.506;2022-12-17T12:53:02;6.37;;;4.30;;
22318;SDS011;11327;52.334;9.506;2022-12-17T12:56:41;6.20;;;3.30;;
22318;SDS011;11327;52.334;9.506;2022-12-17T13:04:26;4.75;;;2.30;;
22318;SDS011;11327;52.334;9.506;2022-12-17T13:11:36;7.55;;;2.95;;
22318;SDS011;11327;52.334;9.506;2022-12-17T13:18:33;7.10;;;3.35;;
22318;SDS011;11327;52.334;9.506;2022-12-17T13:25:33;7.15;;;3.60;;
22318;SDS011;11327;52.334;9.506;2022-12-17T13:28:59;6.37;;;3.70;;
22318;SDS011;11327;52.334;9.506;2022-12-17T13:32:29;6.10;;;3.25;;
22318;SDS011;11327;52.334;9.506;2022-12-17T13:36:08;6.35;;;3.42;;
22318;SDS011;11327;52.334;9.506;2022-12-17T13:42:54;7.47;;;3.40;;
22318;SDS011;11327;52.334;9.506;2022-12-17T13:46:20;5.65;;;3.20;;
22318;SDS011;11327;52.334;9.506;2022-12-17T13:49:40;9.83;;;4.08;;
22318;SDS011;11327;52.334;9.506;2022-12-17T13:53:13;5.70;;;4.00;;
22318;SDS011;11327;52.334;9.506;2022-12-17T13:56:36;6.15;;;4.17;;
22318;SDS011;11327;52.334;9.506;2022-12-17T13:59:57;7.85;;;3.85;;
22318;SDS011;11327;52.334;9.506;2022-12-17T14:03:21;6.60;;;3.90;;
22318;SDS011;11327;52.334;9.506;2022-12-17T14:06:42;8.18;;;4.12;;
22318;SDS011;11327;52.334;9.506;2022-12-17T14:10:11;7.62;;;4.22;;
22318;SDS011;11327;52.334;9.506;2022-12-17T14:13:35;7.78;;;4.00;;
22318;SDS011;11327;52.334;9.506;2022-12-17T14:16:56;8.03;;;4.00;;
22318;SDS011;11327;52.334;9.506;2022-12-17T14:23:54;7.03;;;4.40;;
22318;SDS011;11327;52.334;9.506;2022-12-17T14:27:21;8.88;;;4.15;;
22318;SDS011;11327;52.334;9.506;2022-12-17T14:30:41;7.67;;;4.47;;
22318;SDS011;11327;52.334;9.506;2022-12-17T14:34:06;7.65;;;4.25;;
22318;SDS011;11327;52.334;9.506;2022-12-17T14:37:30;10.05;;;4.45;;
22318;SDS011;11327;52.334;9.506;2022-12-17T14:40:51;7.08;;;4.65;;
22318;SDS011;11327;52.334;9.506;2022-12-17T14:44:16;6.95;;;4.45;;
22318;SDS011;11327;52.334;9.506;2022-12-17T14:47:37;9.63;;;5.40;;
22318;SDS011;11327;52.334;9.506;2022-12-17T14:50:58;8.90;;;5.35;;
22318;SDS011;11327;52.334;9.506;2022-12-17T14:57:49;8.03;;;4.53;;
22318;SDS011;11327;52.334;9.506;2022-12-17T15:01:11;8.60;;;5.45;;
22318;SDS011;11327;52.334;9.506;2022-12-17T15:04:34;8.38;;;5.25;;
22318;SDS011;11327;52.334;9.506;2022-12-17T15:07:57;7.80;;;4.85;;
22318;SDS011;11327;52.334;9.506;2022-12-17T15:11:19;9.38;;;5.03;;
22318;SDS011;11327;52.334;9.506;2022-12-17T15:14:41;8.03;;;4.83;;
22318;SDS011;11327;52.334;9.506;2022-12-17T15:18:02;8.35;;;4.70;;
22318;SDS011;11327;52.334;9.506;2022-12-17T15:21:24;7.62;;;5.40;;
22318;SDS011;11327;52.334;9.506;2022-12-17T15:24:45;10.98;;;6.30;;
22318;SDS011;11327;52.334;9.506;2022-12-17T15:28:06;13.78;;;7.05;;
22318;SDS011;11327;52.334;9.506;2022-12-17T15:31:29;13.90;;;7.70;;
22318;SDS011;11327;52.334;9.506;2022-12-17T15:34:50;8.83;;;5.72;;
22318;SDS011;11327;52.334;9.506;2022-12-17T15:38:11;10.43;;;5.17;;
22318;SDS011;11327;52.334;9.506;2022-12-17T15:41:32;11.65;;;5.15;;
22318;SDS011;11327;52.334;9.506;2022-12-17T15:45:11;10.68;;;5.87;;
22318;SDS011;11327;52.334;9.506;2022-12-17T15:48:32;12.88;;;8.15;;
22318;SDS011;11327;52.334;9.506;2022-12-17T15:51:53;13.03;;;9.13;;
22318;SDS011;11327;52.334;9.506;2022-12-17T15:55:14;14.38;;;10.43;;
22318;SDS011;11327;52.334;9.506;2022-12-17T15:58:35;12.95;;;8.15;;
22318;SDS011;11327;52.334;9.506;2022-12-17T16:01:56;11.65;;;7.00;;
22318;SDS011;11327;52.334;9.506;2022-12-17T16:05:17;12.85;;;8.03;;
22318;SDS011;11327;52.334;9.506;2022-12-17T16:08:39;14.05;;;8.98;;
22318;SDS011;11327;52.334;9.506;2022-12-17T16:12:00;15.08;;;8.70;;
22318;SDS011;11327;52.334;9.506;2022-12-17T16:15:21;15.63;;;9.28;;
22318;SDS011;11327;52.334;9.506;2022-12-17T16:18:42;14.68;;;8.78;;
22318;SDS011;11327;52.334;9.506;2022-12-17T16:22:03;19.48;;;11.83;;
22318;SDS011;11327;52.334;9.506;2022-12-17T16:25:24;23.20;;;13.75;;
22318;SDS011;11327;52.334;9.506;2022-12-17T16:28:45;20.92;;;12.20;;
22318;SDS011;11327;52.334;9.506;2022-12-17T16:32:06;22.48;;;13.32;;
22318;SDS011;11327;52.334;9.506;2022-12-17T16:35:27;23.07;;;14.47;;
22318;SDS011;11327;52.334;9.506;2022-12-17T16:38:49;24.67;;;14.58;;
22318;SDS011;11327;52.334;9.506;2022-12-17T16:42:12;20.08;;;10.85;;
22318;SDS011;11327;52.334;9.506;2022-12-17T16:45:33;15.58;;;8.18;;
22318;SDS011;11327;52.334;9.506;2022-12-17T16:48:55;12.82;;;7.40;;
22318;SDS011;11327;52.334;9.506;2022-12-17T16:52:17;14.33;;;7.85;;
22318;SDS011;11327;52.334;9.506;2022-12-17T16:55:42;14.43;;;7.75;;
22318;SDS011;11327;52.334;9.506;2022-12-17T16:59:07;18.40;;;11.03;;
22318;SDS011;11327;52.334;9.506;2022-12-17T17:02:29;19.15;;;11.30;;
22318;SDS011;11327;52.334;9.506;2022-12-17T17:05:51;22.35;;;13.65;;
22318;SDS011;11327;52.334;9.506;2022-12-17T17:09:13;22.13;;;14.13;;
22318;SDS011;11327;52.334;9.506;2022-12-17T17:12:34;23.07;;;14.00;;
22318;SDS011;11327;52.334;9.506;2022-12-17T17:15:55;23.47;;;13.88;;
22318;SDS011;11327;52.334;9.506;2022-12-17T17:19:16;21.15;;;12.35;;
22318;SDS011;11327;52.334;9.506;2022-12-17T17:22:38;21.45;;;12.23;;
22318;SDS011;11327;52.334;9.506;2022-12-17T17:26:00;15.23;;;8.43;;
22318;SDS011;11327;52.334;9.506;2022-12-17T17:29:21;15.93;;;8.23;;
22318;SDS011;11327;52.334;9.506;2022-12-17T17:32:42;13.88;;;8.58;;
22318;SDS011;11327;52.334;9.506;2022-12-17T17:36:04;14.15;;;8.40;;
22318;SDS011;11327;52.334;9.506;2022-12-17T17:39:28;12.70;;;8.05;;
22318;SDS011;11327;52.334;9.506;2022-12-17T17:42:50;13.62;;;7.37;;
22318;SDS011;11327;52.334;9.506;2022-12-17T17:46:15;14.03;;;7.47;;
22318;SDS011;11327;52.334;9.506;2022-12-17T17:49:37;16.27;;;8.90;;
22318;SDS011;11327;52.334;9.506;2022-12-17T17:52:58;14.38;;;9.35;;
22318;SDS011;11327;52.334;9.506;2022-12-17T17:56:20;15.63;;;9.68;;
22318;SDS011;11327;52.334;9.506;2022-12-17T17:59:43;12.90;;;7.60;;
22318;SDS011;11327;52.334;9.506;2022-12-17T18:03:04;11.70;;;7.37;;
22318;SDS011;11327;52.334;9.506;2022-12-17T18:06:25;12.60;;;7.22;;
22318;SDS011;11327;52.334;9.506;2022-12-17T18:09:46;9.35;;;6.17;;
22318;SDS011;11327;52.334;9.506;2022-12-17T18:13:07;10.55;;;6.08;;
22318;SDS011;11327;52.334;9.506;2022-12-17T18:16:47;11.10;;;5.83;;
22318;SDS011;11327;52.334;9.506;2022-12-17T18:20:09;10.43;;;6.28;;
22318;SDS011;11327;52.334;9.506;2022-12-17T18:23:30;16.40;;;7.62;;
22318;SDS011;11327;52.334;9.506;2022-12-17T18:26:51;12.73;;;6.87;;
22318;SDS011;11327;52.334;9.506;2022-12-17T18:30:12;12.82;;;6.67;;
22318;SDS011;11327;52.334;9.506;2022-12-17T18:33:36;15.40;;;7.47;;
22318;SDS011;11327;52.334;9.506;2022-12-17T18:36:57;17.48;;;7.55;;
22318;SDS011;11327;52.334;9.506;2022-12-17T18:40:18;32.33;;;12.28;;
22318;SDS011;11327;52.334;9.506;2022-12-17T18:43:39;23.67;;;11.33;;
22318;SDS011;11327;52.334;9.506;2022-12-17T18:47:00;20.95;;;9.68;;
22318;SDS011;11327;52.334;9.506;2022-12-17T18:50:21;24.82;;;12.45;;
22318;SDS011;11327;52.334;9.506;2022-12-17T18:53:42;18.77;;;10.95;;
22318;SDS011;11327;52.334;9.506;2022-12-17T18:57:03;13.48;;;8.08;;
22318;SDS011;11327;52.334;9.506;2022-12-17T19:00:24;29.77;;;18.92;;
22318;SDS011;11327;52.334;9.506;2022-12-17T19:03:45;21.75;;;15.25;;
22318;SDS011;11327;52.334;9.506;2022-12-17T19:07:06;17.60;;;10.32;;
22318;SDS011;11327;52.334;9.506;2022-12-17T19:10:27;12.05;;;7.12;;
22318;SDS011;11327;52.334;9.506;2022-12-17T19:13:48;10.60;;;5.45;;
22318;SDS011;11327;52.334;9.506;2022-12-17T19:17:10;11.78;;;7.30;;
22318;SDS011;11327;52.334;9.506;2022-12-17T19:20:31;10.80;;;6.78;;
22318;SDS011;11327;52.334;9.506;2022-12-17T19:23:56;12.82;;;7.30;;
22318;SDS011;11327;52.334;9.506;2022-12-17T19:27:18;13.58;;;8.03;;
22318;SDS011;11327;52.334;9.506;2022-12-17T19:30:39;13.98;;;7.75;;
22318;SDS011;11327;52.334;9.506;2022-12-17T19:34:00;11.57;;;6.92;;
22318;SDS011;11327;52.334;9.506;2022-12-17T19:37:24;12.00;;;7.22;;
22318;SDS011;11327;52.334;9.506;2022-12-17T19:40:45;12.90;;;8.10;;
22318;SDS011;11327;52.334;9.506;2022-12-17T19:44:09;11.03;;;5.72;;
22318;SDS011;11327;52.334;9.506;2022-12-17T19:47:31;9.60;;;6.20;;
22318;SDS011;11327;52.334;9.506;2022-12-17T19:50:55;11.08;;;6.45;;
22318;SDS011;11327;52.334;9.506;2022-12-17T19:54:16;13.83;;;6.17;;
22318;SDS011;11327;52.334;9.506;2022-12-17T19:57:37;10.82;;;5.67;;
22318;SDS011;11327;52.334;9.506;2022-12-17T20:01:08;12.98;;;5.80;;
22318;SDS011;11327;52.334;9.506;2022-12-17T20:04:35;9.30;;;5.50;;
22318;SDS011;11327;52.334;9.506;2022-12-17T20:07:56;9.60;;;5.65;;
22318;SDS011;11327;52.334;9.506;2022-12-17T20:11:17;9.58;;;5.37;;
22318;SDS011;11327;52.334;9.506;2022-12-17T20:14:55;9.50;;;5.75;;
22318;SDS011;11327;52.334;9.506;2022-12-17T20:18:16;7.83;;;4.90;;
22318;SDS011;11327;52.334;9.506;2022-12-17T20:21:37;11.05;;;5.67;;
22318;SDS011;11327;52.334;9.506;2022-12-17T20:24:58;9.60;;;4.50;;
22318;SDS011;11327;52.334;9.506;2022-12-17T20:28:20;10.40;;;4.72;;
22318;SDS011;11327;52.334;9.506;2022-12-17T20:31:41;8.28;;;4.58;;
22318;SDS011;11327;52.334;9.506;2022-12-17T20:35:02;8.95;;;4.72;;
22318;SDS011;11327;52.334;9.506;2022-12-17T20:38:24;9.70;;;4.97;;
22318;SDS011;11327;52.334;9.506;2022-12-17T20:41:45;9.53;;;4.30;;
22318;SDS011;11327;52.334;9.506;2022-12-17T20:45:06;9.48;;;5.33;;
22318;SDS011;11327;52.334;9.506;2022-12-17T20:48:28;8.63;;;5.30;;
22318;SDS011;11327;52.334;9.506;2022-12-17T20:51:49;8.65;;;5.30;;
22318;SDS011;11327;52.334;9.506;2022-12-17T20:55:10;10.38;;;5.58;;
22318;SDS011;11327;52.334;9.506;2022-12-17T20:58:31;8.33;;;5.10;;
22318;SDS011;11327;52.334;9.506;2022-12-17T21:01:52;9.25;;;4.72;;
22318;SDS011;11327;52.334;9.506;2022-12-17T21:05:13;9.15;;;5.72;;
22318;SDS011;11327;52.334;9.506;2022-12-17T21:08:34;10.28;;;6.50;;
22318;SDS011;11327;52.334;9.506;2022-12-17T21:11:55;9.65;;;5.22;;
22318;SDS011;11327;52.334;9.506;2022-12-17T21:15:16;12.63;;;6.75;;
22318;SDS011;11327;52.334;9.506;2022-12-17T21:18:38;14.38;;;8.58;;
22318;SDS011;11327;52.334;9.506;2022-12-17T21:21:59;13.78;;;8.13;;
22318;SDS011;11327;52.334;9.506;2022-12-17T21:25:20;11.22;;;6.75;;
22318;SDS011;11327;52.334;9.506;2022-12-17T21:28:41;12.43;;;8.08;;
22318;SDS011;11327;52.334;9.506;2022-12-17T21:32:06;11.57;;;7.05;;
22318;SDS011;11327;52.334;9.506;2022-12-17T21:35:27;17.82;;;12.47;;
22318;SDS011;11327;52.334;9.506;2022-12-17T21:38:49;12.20;;;7.12;;
22318;SDS011;11327;52.334;9.506;2022-12-17T21:42:11;9.38;;;5.03;;
22318;SDS011;11327;52.334;9.506;2022-12-17T21:45:54;7.80;;;4.97;;
22318;SDS011;11327;52.334;9.506;2022-12-17T21:49:15;10.32;;;6.05;;
22318;SDS011;11327;52.334;9.506;2022-12-17T21:52:36;11.18;;;5.30;;
22318;SDS011;11327;52.334;9.506;2022-12-17T21:56:04;12.82;;;6.37;;
22318;SDS011;11327;52.334;9.506;2022-12-17T21:59:27;10.72;;;6.45;;
22318;SDS011;11327;52.334;9.506;2022-12-17T22:02:48;16.23;;;9.60;;
22318;SDS011;11327;52.334;9.506;2022-12-17T22:06:10;12.80;;;7.25;;
22318;SDS011;11327;52.334;9.506;2022-12-17T22:09:33;14.58;;;8.93;;
22318;SDS011;11327;52.334;9.506;2022-12-17T22:12:54;12.88;;;7.47;;